Massena, NY (13662)

12:12 PM EDT on August 24, 2016 (GMT -0400)
Wastewater Plant | | Change Station

Elev 182 ft 44.93 °N, 74.87 °W | Updated 12 minutes ago

Clear
Clear
80.3 °F
Feels Like 81 °F
N
6.0
Wind Variable Wind from SSW
Gusts 6.0 mph

Today
High -- | Low -- °F
--% Chance of Precip.
Yesterday
High -- | Low -- °F
Precip. -- in
Pressure 30.16 in
Visibility 10.0 miles
Clouds Clear
Heat Index 81 °F
Dew Point 62 °F
Humidity 54%
Rainfall 0.00 in
Snow Depth Not available.
6:12 AM 7:50 PM
Waning Gibbous, 55% visible
METAR KMSS 241553Z AUTO 22009KT 10SM CLR 27/17 A3017 RMK AO2 SLP213 T02720167
Pressure 30.16 in
Visibility 10.0 miles
Clouds Clear
Heat Index 81 °F
Dew Point 62 °F
Humidity 54%
Rainfall 0.00 in
Snow Depth Not available.
6:12 AM 7:50 PM
Waning Gibbous, 55% visible
METAR KMSS 241553Z AUTO 22009KT 10SM CLR 27/17 A3017 RMK AO2 SLP213 T02720167

10-Day Weather Forecast

Almanac

Astronomy

Aug. 24, 2016 Rise Set
Actual Time
Civil Twilight
Nautical Twilight
Astronomical Twilight
Moon
Length of Visible Light
Length of Day
Tomorrow will be .
, % of the Moon is Illuminated

Today's Extremes

State Highs State Lows

Community

WunderPhotos

Upload Photos

1,934,648 photos uploaded!

WunderBlog® & News

Nearby

Air Quality

  Air Quality AQ Index Pollutant
Not available.

Snow Depth

Station Depth Elevation

Earthquake Activity

City Distance Mag. Time & Date
Minimum magnitude displayed is 2.5.

Coastal Water Temperatures

Place Temperature

Stations

Nearby Weather Stations

Station Location Temp. Windchill Dew Point Humidity Wind Precip. Elev Updated Type
                   

Watches & Warnings

There are currently no watches in effect.